createdAt,value
2019-05-02T00:02:49.434Z,13.85
2019-05-02T00:05:19.970Z,13.86
2019-05-02T00:07:53.833Z,13.81
2019-05-02T00:13:43.814Z,13.82
2019-05-02T00:16:15.432Z,13.79
2019-05-02T00:18:57.414Z,13.80
2019-05-02T00:21:47.267Z,13.74
2019-05-02T00:24:17.648Z,13.77
2019-05-02T00:26:48.088Z,13.75
2019-05-02T00:29:18.919Z,13.78
2019-05-02T00:32:10.012Z,13.74
2019-05-02T00:34:40.397Z,13.78
2019-05-02T00:37:10.914Z,13.80
2019-05-02T00:39:45.214Z,13.89
2019-05-02T00:42:32.771Z,13.91
2019-05-02T00:45:03.181Z,13.86
2019-05-02T00:53:20.689Z,14.02
2019-05-02T00:56:10.480Z,13.88
2019-05-02T00:59:02.294Z,13.87
2019-05-02T01:04:48.970Z,13.87
2019-05-02T01:07:20.496Z,13.89
2019-05-02T01:09:56.930Z,13.93
2019-05-02T01:15:23.899Z,13.99
2019-05-02T01:17:54.272Z,13.89
2019-05-02T01:20:27.573Z,13.91
2019-05-02T01:23:07.542Z,13.85
2019-05-02T01:25:57.341Z,13.84
2019-05-02T01:28:49.217Z,13.82
2019-05-02T01:31:43.481Z,13.70
2019-05-02T01:37:26.297Z,13.78
2019-05-02T01:39:56.651Z,13.72
2019-05-02T01:42:49.035Z,13.70
2019-05-02T01:45:29.144Z,13.73
2019-05-02T01:48:18.968Z,13.81
2019-05-02T01:51:10.049Z,13.91
2019-05-02T01:53:52.046Z,13.92
2019-05-02T01:56:24.068Z,13.96
2019-05-02T01:58:57.743Z,13.98
2019-05-02T02:01:37.654Z,13.88
2019-05-02T02:04:08.157Z,13.86
2019-05-02T02:06:38.906Z,13.86
2019-05-02T02:09:21.504Z,13.86
2019-05-02T02:11:51.957Z,13.82
2019-05-02T02:14:41.841Z,13.76
2019-05-02T02:17:15.613Z,13.78
2019-05-02T02:26:11.899Z,13.76
2019-05-02T02:28:54.579Z,13.73
2019-05-02T02:31:46.536Z,13.64
2019-05-02T02:34:32.014Z,13.55
2019-05-02T02:37:13.202Z,13.51
2019-05-02T02:39:56.471Z,13.54
2019-05-02T02:42:34.081Z,13.58
2019-05-02T02:48:33.741Z,13.51
2019-05-02T02:51:23.760Z,13.41
2019-05-02T02:54:04.051Z,13.29
2019-05-02T02:56:40.502Z,13.32
2019-05-02T02:59:25.775Z,13.23
2019-05-02T03:01:56.624Z,13.30
2019-05-02T03:04:46.593Z,13.39
2019-05-02T03:07:25.355Z,13.38
2019-05-02T03:10:06.227Z,13.45
2019-05-02T03:13:03.216Z,13.45
2019-05-02T03:18:45.657Z,13.34
2019-05-02T03:21:20.451Z,13.45
2019-05-02T03:24:07.612Z,13.48
2019-05-02T03:29:44.474Z,13.38
2019-05-02T03:35:41.853Z,13.33
2019-05-02T03:38:31.371Z,13.37
2019-05-02T03:41:01.616Z,13.27
2019-05-02T03:44:09.432Z,13.25
2019-05-02T03:46:34.421Z,13.25
2019-05-02T03:52:07.027Z,13.19
2019-05-02T03:54:48.579Z,13.19
2019-05-02T03:57:14.908Z,13.16
2019-05-02T03:59:45.328Z,13.14
2019-05-02T04:03:00.500Z,13.20
2019-05-02T04:05:40.300Z,13.19
2019-05-02T04:08:22.733Z,13.22
2019-05-02T04:14:46.036Z,13.30
2019-05-02T04:17:16.424Z,13.44
2019-05-02T04:29:13.151Z,13.62
2019-05-02T04:32:10.811Z,13.65
2019-05-02T04:34:40.512Z,13.72
2019-05-02T04:37:34.488Z,13.74
2019-05-02T04:40:13.142Z,13.81
2019-05-02T04:43:08.219Z,13.85
2019-05-02T04:45:55.761Z,13.92
2019-05-02T04:48:34.528Z,14.02
2019-05-02T04:51:16.305Z,14.03
2019-05-02T04:53:50.258Z,14.11
2019-05-02T04:56:20.706Z,14.22
2019-05-02T04:58:51.078Z,14.26
2019-05-02T05:01:21.706Z,14.18
2019-05-02T05:04:12.373Z,14.29
2019-05-02T05:07:02.195Z,14.28
2019-05-02T05:09:58.354Z,14.28
2019-05-02T05:12:37.999Z,14.20
2019-05-02T05:15:33.778Z,14.27
2019-05-02T05:18:04.581Z,14.38
2019-05-02T05:20:52.881Z,14.40
2019-05-02T05:23:59.662Z,14.44
2019-05-02T05:29:26.998Z,14.60
2019-05-02T05:32:10.218Z,14.67
2019-05-02T05:34:51.829Z,14.85
2019-05-02T05:37:43.345Z,15.09
2019-05-02T05:40:30.369Z,15.12
2019-05-02T05:43:14.392Z,15.22
2019-05-02T05:45:56.426Z,15.39
2019-05-02T05:48:39.117Z,15.46
2019-05-02T05:51:20.615Z,15.57
2019-05-02T05:54:03.179Z,15.51
2019-05-02T05:56:42.873Z,15.72
2019-05-02T05:59:22.239Z,15.74
2019-05-02T06:02:05.490Z,15.88
2019-05-02T06:04:50.165Z,16.05
2019-05-02T06:07:33.653Z,16.15
2019-05-02T06:10:14.574Z,16.18
2019-05-02T06:13:05.336Z,16.33
2019-05-02T06:15:42.016Z,16.53
2019-05-02T06:18:12.476Z,16.61
2019-05-02T06:20:42.841Z,16.74
2019-05-02T06:23:13.218Z,16.76
2019-05-02T06:25:43.760Z,16.82
2019-05-02T06:28:36.225Z,16.77
2019-05-02T06:31:25.004Z,16.89
2019-05-02T06:34:14.771Z,16.96
2019-05-02T06:37:08.227Z,17.00
2019-05-02T06:39:47.692Z,17.34
2019-05-02T06:42:18.052Z,17.21
2019-05-02T06:44:48.465Z,17.33
2019-05-02T06:47:41.528Z,17.31
2019-05-02T06:50:21.054Z,17.33
2019-05-02T06:52:51.453Z,17.28
2019-05-02T06:55:41.223Z,17.29
2019-05-02T06:58:31.013Z,17.43
2019-05-02T07:01:21.623Z,17.38
2019-05-02T07:03:58.377Z,17.56
2019-05-02T07:06:29.089Z,17.78
2019-05-02T07:09:20.530Z,17.77
2019-05-02T07:12:03.256Z,17.84
2019-05-02T07:14:55.983Z,17.58
2019-05-02T07:20:23.000Z,17.98
2019-05-02T07:23:16.045Z,17.87
2019-05-02T07:25:50.499Z,17.92
2019-05-02T07:28:24.151Z,18.07
2019-05-02T07:31:06.590Z,17.99
2019-05-02T07:33:43.522Z,18.12
2019-05-02T07:36:36.522Z,18.10
2019-05-02T07:39:24.749Z,18.14
2019-05-02T07:42:14.540Z,18.03
2019-05-02T07:44:44.951Z,18.10
2019-05-02T07:47:40.326Z,18.08
2019-05-02T07:50:18.098Z,18.15
2019-05-02T07:53:09.494Z,18.22
2019-05-02T07:55:59.439Z,18.44
2019-05-02T07:58:30.277Z,18.47
2019-05-02T08:01:00.656Z,18.54
2019-05-02T08:03:50.418Z,18.52
2019-05-02T08:06:44.524Z,18.62
2019-05-02T08:09:23.038Z,18.92
2019-05-02T08:12:12.890Z,18.88
2019-05-02T08:14:43.251Z,18.88
2019-05-02T08:17:17.152Z,18.78
2019-05-02T08:20:08.397Z,19.00
2019-05-02T08:22:44.168Z,19.13
2019-05-02T08:25:26.655Z,19.19
2019-05-02T08:28:35.309Z,19.18
2019-05-02T08:31:05.699Z,19.42
2019-05-02T08:33:36.075Z,19.15
2019-05-02T08:36:25.851Z,19.33
2019-05-02T08:39:33.225Z,19.74
2019-05-02T08:41:59.685Z,19.65
2019-05-02T08:44:51.078Z,19.51
2019-05-02T08:47:33.827Z,19.36
2019-05-02T08:50:27.212Z,19.58
2019-05-02T08:53:19.977Z,19.72
2019-05-02T08:55:58.073Z,19.58
2019-05-02T08:58:49.926Z,19.39
2019-05-02T09:01:34.895Z,19.27
2019-05-02T09:04:03.021Z,19.22
2019-05-02T09:06:53.229Z,19.40
2019-05-02T09:09:44.339Z,19.40
2019-05-02T09:12:15.254Z,19.29
2019-05-02T09:18:12.289Z,19.39
2019-05-02T09:21:02.092Z,19.52
2019-05-02T09:23:44.750Z,19.56
2019-05-02T09:26:38.513Z,19.59
2019-05-02T09:29:17.977Z,19.62
2019-05-02T09:32:07.761Z,19.74
2019-05-02T09:35:02.172Z,19.87
2019-05-02T09:37:41.960Z,19.80
2019-05-02T09:40:18.113Z,19.75
2019-05-02T09:42:53.421Z,19.81
2019-05-02T09:45:43.219Z,19.67
2019-05-02T09:48:26.773Z,19.62
2019-05-02T09:51:15.655Z,19.70
2019-05-02T09:53:49.552Z,19.79
2019-05-02T09:56:21.547Z,19.51
2019-05-02T09:59:26.656Z,19.69
2019-05-02T10:01:54.243Z,19.72
2019-05-02T10:04:44.232Z,19.94
2019-05-02T10:07:27.119Z,20.14
2019-05-02T10:09:57.864Z,20.31
2019-05-02T10:12:48.999Z,20.52
2019-05-02T10:15:38.912Z,20.67
2019-05-02T10:18:12.022Z,20.88
2019-05-02T10:21:02.822Z,20.73
2019-05-02T10:24:23.661Z,20.80
2019-05-02T10:27:13.420Z,20.63
2019-05-02T10:29:43.778Z,21.12
2019-05-02T10:32:33.538Z,21.20
2019-05-02T10:35:04.021Z,21.07
2019-05-02T10:37:38.282Z,20.72
2019-05-02T10:40:17.526Z,20.46
2019-05-02T10:43:02.767Z,20.61
2019-05-02T10:45:47.493Z,20.95
2019-05-02T10:48:28.505Z,21.28
2019-05-02T10:51:26.785Z,21.13
2019-05-02T10:53:57.239Z,20.89
2019-05-02T10:56:27.671Z,20.78
2019-05-02T10:58:58.156Z,20.90
2019-05-02T11:02:06.993Z,20.71
2019-05-02T11:07:35.622Z,20.93
2019-05-02T11:16:14.646Z,21.18
2019-05-02T11:19:03.986Z,21.23
2019-05-02T11:21:34.434Z,21.40
2019-05-02T11:24:24.301Z,21.27
2019-05-02T11:26:54.819Z,21.13
2019-05-02T11:29:25.274Z,21.23
2019-05-02T11:31:55.686Z,21.43
2019-05-02T11:34:26.103Z,21.52
2019-05-02T11:36:56.487Z,21.49
2019-05-02T11:39:51.364Z,21.53
2019-05-02T11:42:29.176Z,21.33
2019-05-02T11:44:59.554Z,21.54
2019-05-02T11:47:29.919Z,21.68
2019-05-02T11:50:19.724Z,21.93
2019-05-02T11:53:23.191Z,22.01
2019-05-02T11:55:53.235Z,22.03
2019-05-02T11:58:30.035Z,22.17
2019-05-02T12:01:04.893Z,22.15
2019-05-02T12:03:52.819Z,22.34
2019-05-02T12:06:23.328Z,22.29
2019-05-02T12:08:53.811Z,22.02
2019-05-02T12:11:47.476Z,22.21
2019-05-02T12:14:27.417Z,22.01
2019-05-02T12:17:09.467Z,22.35
2019-05-02T12:19:39.863Z,21.96
2019-05-02T12:22:29.665Z,22.26
2019-05-02T12:25:19.516Z,22.53
2019-05-02T12:27:49.920Z,22.40
2019-05-02T12:30:20.417Z,22.31
2019-05-02T12:33:12.309Z,22.47
2019-05-02T12:35:48.310Z,22.50
2019-05-02T12:38:38.161Z,22.62
2019-05-02T12:41:19.514Z,23.10
2019-05-02T12:43:52.457Z,23.28
2019-05-02T12:46:34.391Z,23.25
2019-05-02T12:49:27.829Z,22.69
2019-05-02T12:55:05.214Z,22.91
2019-05-02T12:57:35.621Z,23.71
2019-05-02T13:03:27.229Z,23.72
2019-05-02T13:05:57.643Z,23.91
2019-05-02T13:08:28.052Z,23.91
2019-05-02T13:11:17.314Z,23.62
2019-05-02T13:13:47.799Z,24.24
2019-05-02T13:16:37.603Z,23.87
2019-05-02T13:19:08.025Z,23.68
2019-05-02T13:27:22.887Z,24.84
2019-05-02T13:36:06.871Z,24.43
2019-05-02T13:38:56.654Z,24.45
2019-05-02T13:41:46.615Z,23.96
2019-05-02T13:53:09.482Z,24.82
2019-05-02T13:56:18.104Z,24.44
2019-05-02T13:59:10.454Z,24.36
2019-05-02T14:04:53.199Z,25.09
2019-05-02T14:07:23.581Z,25.55
2019-05-02T14:12:56.566Z,25.98
2019-05-02T14:15:46.376Z,26.28
2019-05-02T14:18:16.807Z,26.74
2019-05-02T14:21:06.565Z,26.99
2019-05-02T14:23:56.389Z,27.63
2019-05-02T14:26:46.155Z,27.86
2019-05-02T14:29:16.617Z,28.03
2019-05-02T14:31:47.158Z,28.54
2019-05-02T14:34:36.415Z,29.18
2019-05-02T14:37:06.904Z,30.02
2019-05-02T14:39:37.282Z,30.32
2019-05-02T14:42:07.699Z,30.36
2019-05-02T14:45:01.489Z,30.72
2019-05-02T14:47:22.403Z,30.43
2019-05-02T14:50:05.265Z,31.04
2019-05-02T14:52:47.995Z,30.91
2019-05-02T14:58:37.704Z,29.86
2019-05-02T15:01:22.579Z,29.74
2019-05-02T15:04:06.435Z,29.70
2019-05-02T15:06:47.552Z,30.00
2019-05-02T15:09:26.905Z,29.51
2019-05-02T15:12:13.946Z,30.08
2019-05-02T15:14:49.761Z,30.16
2019-05-02T15:17:36.242Z,30.98
2019-05-02T15:23:19.707Z,29.49
2019-05-02T15:26:11.691Z,29.70
2019-05-02T15:28:52.035Z,30.22
2019-05-02T15:34:46.316Z,31.31
2019-05-02T15:37:16.962Z,30.97
2019-05-02T15:42:43.143Z,30.72
2019-05-02T15:45:13.597Z,30.66
2019-05-02T15:47:45.407Z,30.69
2019-05-02T15:50:26.951Z,30.69
2019-05-02T15:53:16.312Z,31.62
2019-05-02T15:59:08.569Z,30.75
2019-05-02T16:04:41.718Z,29.40
2019-05-02T16:07:18.420Z,29.02
2019-05-02T16:15:57.121Z,32.14
2019-05-02T16:18:40.942Z,32.83
2019-05-02T16:24:32.141Z,31.98
2019-05-02T16:27:08.376Z,31.38
2019-05-02T16:29:38.778Z,30.94
2019-05-02T16:32:30.882Z,30.41
2019-05-02T16:37:54.667Z,30.65
2019-05-02T16:40:35.105Z,30.62
2019-05-02T16:43:05.604Z,29.20
2019-05-02T16:45:35.973Z,28.78
2019-05-02T16:48:06.535Z,28.20
2019-05-02T16:50:37.124Z,28.54
2019-05-02T16:53:07.496Z,28.57
2019-05-02T16:55:37.864Z,27.71
2019-05-02T16:58:08.372Z,28.01
2019-05-02T17:00:44.005Z,28.50
2019-05-02T17:03:25.075Z,28.34
2019-05-02T17:05:59.300Z,29.27
2019-05-02T17:08:49.457Z,29.09
2019-05-02T17:11:42.379Z,29.75
2019-05-02T17:14:13.548Z,29.50
2019-05-02T17:17:04.237Z,29.13
2019-05-02T17:19:54.046Z,28.63
2019-05-02T17:22:47.346Z,28.45
2019-05-02T17:25:26.779Z,27.91
2019-05-02T17:28:02.407Z,27.45
2019-05-02T17:30:48.705Z,27.72
2019-05-02T17:33:19.052Z,26.64
2019-05-02T17:36:08.821Z,25.64
2019-05-02T17:38:59.381Z,24.48
2019-05-02T17:41:37.018Z,23.74
2019-05-02T17:44:18.487Z,23.34
2019-05-02T17:46:58.097Z,22.85
2019-05-02T17:49:39.909Z,22.46
2019-05-02T17:52:29.175Z,22.12
2019-05-02T17:55:01.823Z,22.01
2019-05-02T17:57:43.697Z,21.61
2019-05-02T18:00:33.442Z,21.37
2019-05-02T18:03:03.862Z,21.22
2019-05-02T18:05:35.692Z,20.94
2019-05-02T18:08:14.746Z,20.74
2019-05-02T18:10:50.659Z,20.67
2019-05-02T18:13:33.974Z,20.57
2019-05-02T18:16:17.254Z,20.27
2019-05-02T18:19:07.149Z,20.14
2019-05-02T18:21:37.523Z,19.93
2019-05-02T18:24:27.351Z,19.72
2019-05-02T18:27:17.135Z,19.52
2019-05-02T18:29:47.605Z,19.61
2019-05-02T18:32:37.510Z,19.46
2019-05-02T18:35:08.000Z,19.33
2019-05-02T18:37:42.821Z,19.17
2019-05-02T18:40:27.677Z,19.05
2019-05-02T18:43:06.788Z,18.96
2019-05-02T18:45:37.171Z,18.75
2019-05-02T18:48:26.969Z,18.55
2019-05-02T18:50:57.378Z,18.34
2019-05-02T18:53:47.139Z,18.14
2019-05-02T18:56:17.536Z,17.95
2019-05-02T18:58:47.948Z,17.84
2019-05-02T19:01:20.877Z,17.68
2019-05-02T19:04:09.958Z,17.52
2019-05-02T19:06:42.016Z,17.48
2019-05-02T19:09:33.181Z,17.44
2019-05-02T19:12:22.460Z,17.40
2019-05-02T19:15:03.180Z,17.34
2019-05-02T19:17:43.131Z,17.24
2019-05-02T19:21:03.041Z,17.13
2019-05-02T19:24:13.086Z,17.06
2019-05-02T19:26:56.744Z,16.96
2019-05-02T19:29:28.799Z,16.96
2019-05-02T19:31:59.494Z,17.00
2019-05-02T19:34:29.923Z,16.94
2019-05-02T19:37:02.867Z,16.85
2019-05-02T19:39:47.223Z,16.78
2019-05-02T19:42:26.274Z,16.68
2019-05-02T19:45:11.584Z,16.60
2019-05-02T19:47:54.249Z,16.52
2019-05-02T19:50:43.084Z,16.44
2019-05-02T19:56:12.632Z,16.30
2019-05-02T19:59:02.762Z,16.37
2019-05-02T20:01:44.972Z,16.34
2019-05-02T20:04:37.614Z,16.36
2019-05-02T20:07:17.659Z,16.39
2019-05-02T20:09:48.151Z,16.44
2019-05-02T20:12:40.900Z,16.42
2019-05-02T20:18:47.217Z,16.48
2019-05-02T20:24:54.526Z,16.35
2019-05-02T20:30:30.121Z,16.39
2019-05-02T20:33:22.038Z,16.34
2019-05-02T20:35:57.544Z,16.33
2019-05-02T20:38:27.920Z,16.31
2019-05-02T20:40:58.330Z,16.35
2019-05-02T20:43:28.850Z,16.31
2019-05-02T20:45:59.221Z,16.25
2019-05-02T20:48:29.717Z,16.24
2019-05-02T20:51:00.135Z,16.21
2019-05-02T20:53:31.843Z,16.24
2019-05-02T20:56:23.025Z,16.20
2019-05-02T20:59:04.999Z,16.15
2019-05-02T21:01:35.351Z,16.00
2019-05-02T21:04:05.775Z,15.96
2019-05-02T21:06:55.143Z,15.93
2019-05-02T21:09:44.477Z,15.87
2019-05-02T21:12:34.279Z,15.78
2019-05-02T21:15:05.379Z,15.77
2019-05-02T21:17:35.835Z,15.70
2019-05-02T21:20:06.781Z,15.66
2019-05-02T21:22:37.212Z,15.69
2019-05-02T21:28:23.729Z,15.65
2019-05-02T21:30:54.103Z,15.55
2019-05-02T21:33:43.531Z,15.52
2019-05-02T21:36:13.956Z,15.45
2019-05-02T21:38:44.413Z,15.43
2019-05-02T21:44:16.730Z,15.48
2019-05-02T21:46:47.202Z,15.43
2019-05-02T21:55:42.919Z,15.32
2019-05-02T21:58:21.532Z,15.36
2019-05-02T22:01:42.851Z,15.38
2019-05-02T22:04:13.350Z,15.35
2019-05-02T22:06:43.724Z,15.39
2019-05-02T22:09:14.123Z,15.40
2019-05-02T22:12:03.920Z,15.41
2019-05-02T22:14:53.217Z,15.50
2019-05-02T22:17:43.042Z,15.47
2019-05-02T22:20:13.469Z,15.53
2019-05-02T22:22:55.692Z,15.53
2019-05-02T22:28:09.222Z,15.47
2019-05-02T22:30:39.602Z,15.42
2019-05-02T22:33:11.759Z,15.38
2019-05-02T22:36:02.014Z,15.32
2019-05-02T22:39:03.276Z,15.35
2019-05-02T22:41:33.653Z,15.28
2019-05-02T22:44:17.001Z,15.23
2019-05-02T22:46:47.360Z,15.21
2019-05-02T22:49:37.165Z,15.25
2019-05-02T22:52:07.519Z,15.28
2019-05-02T22:54:57.315Z,15.20
2019-05-02T22:57:27.718Z,15.19
2019-05-02T23:00:17.602Z,15.22
2019-05-02T23:03:07.397Z,15.24
2019-05-02T23:05:37.900Z,15.22
2019-05-02T23:08:08.362Z,15.18
2019-05-02T23:10:38.841Z,15.22
2019-05-02T23:13:09.219Z,15.17
2019-05-02T23:15:59.024Z,15.18
2019-05-02T23:18:29.590Z,15.14
2019-05-02T23:21:01.988Z,15.15
2019-05-02T23:23:43.425Z,15.22
2019-05-02T23:26:33.079Z,15.23
2019-05-02T23:31:46.929Z,15.20
2019-05-02T23:34:17.310Z,15.25
2019-05-02T23:37:07.111Z,15.20
2019-05-02T23:39:37.596Z,15.15
2019-05-02T23:42:07.983Z,15.15
2019-05-02T23:44:38.445Z,15.10
2019-05-02T23:47:08.848Z,15.10
2019-05-02T23:49:58.270Z,15.11
2019-05-02T23:52:28.667Z,15.00
2019-05-02T23:54:59.044Z,14.92
